sensor_id;sensor_type;location;lat;lon;timestamp;P1;durP1;ratioP1;P2;durP2;ratioP2
13973;SDS011;7060;43.770;4.008;2023-02-27T00:00:57;1.10;;;0.60;;
13973;SDS011;7060;43.770;4.008;2023-02-27T00:03:26;2.57;;;0.70;;
13973;SDS011;7060;43.770;4.008;2023-02-27T00:05:56;1.30;;;0.60;;
13973;SDS011;7060;43.770;4.008;2023-02-27T00:08:24;0.83;;;0.53;;
13973;SDS011;7060;43.770;4.008;2023-02-27T00:10:53;1.50;;;0.70;;
13973;SDS011;7060;43.770;4.008;2023-02-27T00:13:21;0.87;;;0.60;;
13973;SDS011;7060;43.770;4.008;2023-02-27T00:15:50;2.63;;;0.90;;
13973;SDS011;7060;43.770;4.008;2023-02-27T00:18:19;0.80;;;0.60;;
13973;SDS011;7060;43.770;4.008;2023-02-27T00:20:47;4.40;;;1.07;;
13973;SDS011;7060;43.770;4.008;2023-02-27T00:23:17;1.30;;;0.63;;
13973;SDS011;7060;43.770;4.008;2023-02-27T00:25:45;2.20;;;0.80;;
13973;SDS011;7060;43.770;4.008;2023-02-27T00:28:14;1.50;;;0.90;;
13973;SDS011;7060;43.770;4.008;2023-02-27T00:30:42;1.50;;;0.80;;
13973;SDS011;7060;43.770;4.008;2023-02-27T00:33:11;1.57;;;0.80;;
13973;SDS011;7060;43.770;4.008;2023-02-27T00:35:40;3.60;;;1.17;;
13973;SDS011;7060;43.770;4.008;2023-02-27T00:38:08;1.50;;;0.70;;
13973;SDS011;7060;43.770;4.008;2023-02-27T00:40:38;1.23;;;0.67;;
13973;SDS011;7060;43.770;4.008;2023-02-27T00:43:07;1.30;;;0.70;;
13973;SDS011;7060;43.770;4.008;2023-02-27T00:45:35;0.90;;;0.70;;
13973;SDS011;7060;43.770;4.008;2023-02-27T00:48:03;1.07;;;0.67;;
13973;SDS011;7060;43.770;4.008;2023-02-27T00:50:32;1.27;;;0.57;;
13973;SDS011;7060;43.770;4.008;2023-02-27T00:53:01;0.67;;;0.57;;
13973;SDS011;7060;43.770;4.008;2023-02-27T00:55:29;0.93;;;0.70;;
13973;SDS011;7060;43.770;4.008;2023-02-27T00:57:59;1.13;;;0.70;;
13973;SDS011;7060;43.770;4.008;2023-02-27T01:00:28;2.63;;;0.70;;
13973;SDS011;7060;43.770;4.008;2023-02-27T01:02:56;2.10;;;0.70;;
13973;SDS011;7060;43.770;4.008;2023-02-27T01:05:25;1.70;;;0.80;;
13973;SDS011;7060;43.770;4.008;2023-02-27T01:07:53;1.03;;;0.70;;
13973;SDS011;7060;43.770;4.008;2023-02-27T01:10:21;1.67;;;0.77;;
13973;SDS011;7060;43.770;4.008;2023-02-27T01:12:50;1.67;;;0.80;;
13973;SDS011;7060;43.770;4.008;2023-02-27T01:15:20;2.10;;;1.10;;
13973;SDS011;7060;43.770;4.008;2023-02-27T01:17:48;1.07;;;0.77;;
13973;SDS011;7060;43.770;4.008;2023-02-27T01:20:17;1.60;;;0.90;;
13973;SDS011;7060;43.770;4.008;2023-02-27T01:22:45;0.90;;;0.70;;
13973;SDS011;7060;43.770;4.008;2023-02-27T01:25:14;2.20;;;1.00;;
13973;SDS011;7060;43.770;4.008;2023-02-27T01:27:43;2.80;;;1.00;;
13973;SDS011;7060;43.770;4.008;2023-02-27T01:30:11;4.00;;;1.00;;
13973;SDS011;7060;43.770;4.008;2023-02-27T01:32:44;1.90;;;0.90;;
13973;SDS011;7060;43.770;4.008;2023-02-27T01:35:13;1.67;;;0.90;;
13973;SDS011;7060;43.770;4.008;2023-02-27T01:37:41;1.83;;;1.03;;
13973;SDS011;7060;43.770;4.008;2023-02-27T01:40:10;1.50;;;1.03;;
13973;SDS011;7060;43.770;4.008;2023-02-27T01:42:39;1.83;;;0.83;;
13973;SDS011;7060;43.770;4.008;2023-02-27T01:45:15;2.07;;;1.20;;
13973;SDS011;7060;43.770;4.008;2023-02-27T01:48:05;1.77;;;1.00;;
13973;SDS011;7060;43.770;4.008;2023-02-27T01:50:38;1.40;;;1.00;;
13973;SDS011;7060;43.770;4.008;2023-02-27T01:53:10;1.37;;;0.93;;
13973;SDS011;7060;43.770;4.008;2023-02-27T01:55:39;1.53;;;1.00;;
13973;SDS011;7060;43.770;4.008;2023-02-27T01:58:09;1.50;;;0.97;;
13973;SDS011;7060;43.770;4.008;2023-02-27T02:00:39;1.20;;;1.10;;
13973;SDS011;7060;43.770;4.008;2023-02-27T02:03:13;1.00;;;0.80;;
13973;SDS011;7060;43.770;4.008;2023-02-27T02:05:47;1.83;;;1.10;;
13973;SDS011;7060;43.770;4.008;2023-02-27T02:08:17;1.30;;;1.00;;
13973;SDS011;7060;43.770;4.008;2023-02-27T02:10:48;1.87;;;1.00;;
13973;SDS011;7060;43.770;4.008;2023-02-27T02:13:19;1.27;;;1.13;;
13973;SDS011;7060;43.770;4.008;2023-02-27T02:15:50;1.80;;;1.23;;
13973;SDS011;7060;43.770;4.008;2023-02-27T02:18:30;1.87;;;1.33;;
13973;SDS011;7060;43.770;4.008;2023-02-27T02:24:20;1.30;;;1.00;;
13973;SDS011;7060;43.770;4.008;2023-02-27T02:27:13;1.10;;;0.90;;
13973;SDS011;7060;43.770;4.008;2023-02-27T02:30:02;2.00;;;1.33;;
13973;SDS011;7060;43.770;4.008;2023-02-27T02:39:31;1.60;;;1.10;;
13973;SDS011;7060;43.770;4.008;2023-02-27T02:42:13;1.90;;;1.20;;
13973;SDS011;7060;43.770;4.008;2023-02-27T02:44:49;1.50;;;1.10;;
13973;SDS011;7060;43.770;4.008;2023-02-27T02:47:28;1.80;;;1.40;;
13973;SDS011;7060;43.770;4.008;2023-02-27T02:50:05;2.70;;;1.10;;
13973;SDS011;7060;43.770;4.008;2023-02-27T02:52:41;1.80;;;1.10;;
13973;SDS011;7060;43.770;4.008;2023-02-27T02:55:20;1.97;;;1.47;;
13973;SDS011;7060;43.770;4.008;2023-02-27T02:57:54;2.33;;;1.00;;
13973;SDS011;7060;43.770;4.008;2023-02-27T03:00:29;1.93;;;1.40;;
13973;SDS011;7060;43.770;4.008;2023-02-27T03:03:03;1.60;;;1.20;;
13973;SDS011;7060;43.770;4.008;2023-02-27T03:05:36;3.67;;;1.23;;
13973;SDS011;7060;43.770;4.008;2023-02-27T03:08:10;2.07;;;0.90;;
13973;SDS011;7060;43.770;4.008;2023-02-27T03:10:44;1.57;;;0.93;;
13973;SDS011;7060;43.770;4.008;2023-02-27T03:13:20;3.07;;;0.97;;
13973;SDS011;7060;43.770;4.008;2023-02-27T03:15:54;2.73;;;1.03;;
13973;SDS011;7060;43.770;4.008;2023-02-27T03:18:26;1.73;;;1.10;;
13973;SDS011;7060;43.770;4.008;2023-02-27T03:21:02;3.40;;;1.10;;
13973;SDS011;7060;43.770;4.008;2023-02-27T03:23:36;3.83;;;1.23;;
13973;SDS011;7060;43.770;4.008;2023-02-27T03:26:13;4.30;;;1.60;;
13973;SDS011;7060;43.770;4.008;2023-02-27T03:28:47;2.10;;;1.13;;
13973;SDS011;7060;43.770;4.008;2023-02-27T03:31:24;2.33;;;1.00;;
13973;SDS011;7060;43.770;4.008;2023-02-27T03:34:00;1.20;;;1.00;;
13973;SDS011;7060;43.770;4.008;2023-02-27T03:36:37;2.57;;;1.10;;
13973;SDS011;7060;43.770;4.008;2023-02-27T03:39:14;2.60;;;1.17;;
13973;SDS011;7060;43.770;4.008;2023-02-27T03:41:54;1.83;;;1.10;;
13973;SDS011;7060;43.770;4.008;2023-02-27T03:44:54;1.87;;;1.00;;
13973;SDS011;7060;43.770;4.008;2023-02-27T03:47:28;1.83;;;1.00;;
13973;SDS011;7060;43.770;4.008;2023-02-27T03:49:57;1.67;;;1.00;;
13973;SDS011;7060;43.770;4.008;2023-02-27T03:52:26;1.80;;;1.30;;
13973;SDS011;7060;43.770;4.008;2023-02-27T03:54:59;1.90;;;1.17;;
13973;SDS011;7060;43.770;4.008;2023-02-27T03:57:32;1.10;;;0.93;;
13973;SDS011;7060;43.770;4.008;2023-02-27T04:00:02;2.33;;;1.10;;
13973;SDS011;7060;43.770;4.008;2023-02-27T04:02:39;3.87;;;1.00;;
13973;SDS011;7060;43.770;4.008;2023-02-27T04:05:10;2.00;;;1.30;;
13973;SDS011;7060;43.770;4.008;2023-02-27T04:07:44;1.53;;;1.10;;
13973;SDS011;7060;43.770;4.008;2023-02-27T04:10:35;2.00;;;1.50;;
13973;SDS011;7060;43.770;4.008;2023-02-27T04:19:13;2.53;;;1.00;;
13973;SDS011;7060;43.770;4.008;2023-02-27T04:21:48;1.77;;;1.37;;
13973;SDS011;7060;43.770;4.008;2023-02-27T04:24:29;2.20;;;1.17;;
13973;SDS011;7060;43.770;4.008;2023-02-27T04:27:05;1.50;;;1.03;;
13973;SDS011;7060;43.770;4.008;2023-02-27T04:29:45;1.63;;;1.10;;
13973;SDS011;7060;43.770;4.008;2023-02-27T04:32:21;1.20;;;1.10;;
13973;SDS011;7060;43.770;4.008;2023-02-27T04:34:57;1.93;;;1.43;;
13973;SDS011;7060;43.770;4.008;2023-02-27T04:37:29;3.47;;;1.43;;
13973;SDS011;7060;43.770;4.008;2023-02-27T04:40:03;1.50;;;1.13;;
13973;SDS011;7060;43.770;4.008;2023-02-27T04:42:36;2.47;;;1.10;;
13973;SDS011;7060;43.770;4.008;2023-02-27T04:45:10;1.60;;;1.20;;
13973;SDS011;7060;43.770;4.008;2023-02-27T04:47:42;3.23;;;1.63;;
13973;SDS011;7060;43.770;4.008;2023-02-27T04:50:16;1.80;;;1.10;;
13973;SDS011;7060;43.770;4.008;2023-02-27T04:52:51;2.33;;;1.20;;
13973;SDS011;7060;43.770;4.008;2023-02-27T04:55:24;1.73;;;1.10;;
13973;SDS011;7060;43.770;4.008;2023-02-27T04:57:56;1.80;;;1.00;;
13973;SDS011;7060;43.770;4.008;2023-02-27T05:00:30;2.03;;;1.00;;
13973;SDS011;7060;43.770;4.008;2023-02-27T05:03:02;1.80;;;1.20;;
13973;SDS011;7060;43.770;4.008;2023-02-27T05:05:36;1.47;;;1.00;;
13973;SDS011;7060;43.770;4.008;2023-02-27T05:08:08;2.13;;;1.20;;
13973;SDS011;7060;43.770;4.008;2023-02-27T05:10:43;1.60;;;1.07;;
13973;SDS011;7060;43.770;4.008;2023-02-27T05:13:17;1.87;;;1.50;;
13973;SDS011;7060;43.770;4.008;2023-02-27T05:15:49;1.27;;;1.10;;
13973;SDS011;7060;43.770;4.008;2023-02-27T05:18:23;1.93;;;1.30;;
13973;SDS011;7060;43.770;4.008;2023-02-27T05:20:55;1.40;;;1.10;;
13973;SDS011;7060;43.770;4.008;2023-02-27T05:23:34;1.87;;;1.20;;
13973;SDS011;7060;43.770;4.008;2023-02-27T05:26:08;1.00;;;0.90;;
13973;SDS011;7060;43.770;4.008;2023-02-27T05:28:45;1.63;;;1.10;;
13973;SDS011;7060;43.770;4.008;2023-02-27T05:31:22;1.83;;;1.20;;
13973;SDS011;7060;43.770;4.008;2023-02-27T05:34:03;1.50;;;1.20;;
13973;SDS011;7060;43.770;4.008;2023-02-27T05:36:37;3.63;;;1.40;;
13973;SDS011;7060;43.770;4.008;2023-02-27T05:39:10;1.60;;;1.23;;
13973;SDS011;7060;43.770;4.008;2023-02-27T05:41:42;1.80;;;1.13;;
13973;SDS011;7060;43.770;4.008;2023-02-27T05:44:15;2.00;;;1.13;;
13973;SDS011;7060;43.770;4.008;2023-02-27T05:46:48;3.23;;;1.40;;
13973;SDS011;7060;43.770;4.008;2023-02-27T05:49:22;2.27;;;1.40;;
13973;SDS011;7060;43.770;4.008;2023-02-27T05:51:53;2.00;;;1.53;;
13973;SDS011;7060;43.770;4.008;2023-02-27T05:54:26;2.27;;;1.60;;
13973;SDS011;7060;43.770;4.008;2023-02-27T05:57:01;2.40;;;1.40;;
13973;SDS011;7060;43.770;4.008;2023-02-27T05:59:35;2.10;;;1.40;;
13973;SDS011;7060;43.770;4.008;2023-02-27T06:02:10;4.20;;;1.70;;
13973;SDS011;7060;43.770;4.008;2023-02-27T06:04:40;2.77;;;1.70;;
13973;SDS011;7060;43.770;4.008;2023-02-27T06:07:09;2.57;;;1.50;;
13973;SDS011;7060;43.770;4.008;2023-02-27T06:09:39;2.30;;;2.00;;
13973;SDS011;7060;43.770;4.008;2023-02-27T06:12:08;3.13;;;2.07;;
13973;SDS011;7060;43.770;4.008;2023-02-27T06:14:36;2.80;;;2.03;;
13973;SDS011;7060;43.770;4.008;2023-02-27T06:17:05;3.33;;;1.67;;
13973;SDS011;7060;43.770;4.008;2023-02-27T06:19:35;2.90;;;1.80;;
13973;SDS011;7060;43.770;4.008;2023-02-27T06:22:03;3.27;;;1.90;;
13973;SDS011;7060;43.770;4.008;2023-02-27T06:24:32;3.23;;;2.17;;
13973;SDS011;7060;43.770;4.008;2023-02-27T06:27:00;2.43;;;1.53;;
13973;SDS011;7060;43.770;4.008;2023-02-27T06:29:28;3.37;;;2.17;;
13973;SDS011;7060;43.770;4.008;2023-02-27T06:31:57;2.30;;;2.00;;
13973;SDS011;7060;43.770;4.008;2023-02-27T06:34:25;2.83;;;1.90;;
13973;SDS011;7060;43.770;4.008;2023-02-27T06:36:55;2.83;;;2.10;;
13973;SDS011;7060;43.770;4.008;2023-02-27T06:39:24;2.70;;;2.10;;
13973;SDS011;7060;43.770;4.008;2023-02-27T06:41:52;4.03;;;1.83;;
13973;SDS011;7060;43.770;4.008;2023-02-27T06:44:21;3.10;;;1.80;;
13973;SDS011;7060;43.770;4.008;2023-02-27T06:46:49;2.07;;;1.40;;
13973;SDS011;7060;43.770;4.008;2023-02-27T06:49:17;2.50;;;1.63;;
13973;SDS011;7060;43.770;4.008;2023-02-27T06:51:46;2.80;;;1.83;;
13973;SDS011;7060;43.770;4.008;2023-02-27T06:54:16;3.17;;;1.97;;
13973;SDS011;7060;43.770;4.008;2023-02-27T06:56:44;3.13;;;1.80;;
13973;SDS011;7060;43.770;4.008;2023-02-27T06:59:14;2.67;;;1.80;;
13973;SDS011;7060;43.770;4.008;2023-02-27T07:01:42;2.80;;;2.10;;
13973;SDS011;7060;43.770;4.008;2023-02-27T07:04:11;2.40;;;1.83;;
13973;SDS011;7060;43.770;4.008;2023-02-27T07:06:40;3.17;;;2.00;;
13973;SDS011;7060;43.770;4.008;2023-02-27T07:09:31;2.30;;;1.73;;
13973;SDS011;7060;43.770;4.008;2023-02-27T07:11:59;2.63;;;1.93;;
13973;SDS011;7060;43.770;4.008;2023-02-27T07:14:28;4.40;;;1.90;;
13973;SDS011;7060;43.770;4.008;2023-02-27T07:16:58;2.83;;;1.83;;
13973;SDS011;7060;43.770;4.008;2023-02-27T07:19:30;1.90;;;1.43;;
13973;SDS011;7060;43.770;4.008;2023-02-27T07:22:01;3.60;;;1.93;;
13973;SDS011;7060;43.770;4.008;2023-02-27T07:24:32;2.30;;;1.83;;
13973;SDS011;7060;43.770;4.008;2023-02-27T07:27:00;3.43;;;1.90;;
13973;SDS011;7060;43.770;4.008;2023-02-27T07:29:29;2.97;;;2.13;;
13973;SDS011;7060;43.770;4.008;2023-02-27T07:31:57;2.73;;;1.73;;
13973;SDS011;7060;43.770;4.008;2023-02-27T07:34:27;2.17;;;1.67;;
13973;SDS011;7060;43.770;4.008;2023-02-27T07:36:55;2.40;;;1.70;;
13973;SDS011;7060;43.770;4.008;2023-02-27T07:39:24;2.93;;;1.40;;
13973;SDS011;7060;43.770;4.008;2023-02-27T07:41:54;3.03;;;2.00;;
13973;SDS011;7060;43.770;4.008;2023-02-27T07:44:22;3.17;;;2.20;;
13973;SDS011;7060;43.770;4.008;2023-02-27T07:46:50;2.53;;;1.50;;
13973;SDS011;7060;43.770;4.008;2023-02-27T07:49:19;2.53;;;1.80;;
13973;SDS011;7060;43.770;4.008;2023-02-27T07:51:48;3.40;;;1.70;;
13973;SDS011;7060;43.770;4.008;2023-02-27T07:54:16;2.90;;;1.90;;
13973;SDS011;7060;43.770;4.008;2023-02-27T07:56:44;2.53;;;1.60;;
13973;SDS011;7060;43.770;4.008;2023-02-27T07:59:14;2.23;;;1.83;;
13973;SDS011;7060;43.770;4.008;2023-02-27T08:01:43;1.97;;;1.63;;
13973;SDS011;7060;43.770;4.008;2023-02-27T08:04:11;2.50;;;1.80;;
13973;SDS011;7060;43.770;4.008;2023-02-27T08:06:41;2.67;;;1.53;;
13973;SDS011;7060;43.770;4.008;2023-02-27T08:09:09;4.27;;;1.70;;
13973;SDS011;7060;43.770;4.008;2023-02-27T08:11:38;3.40;;;1.93;;
13973;SDS011;7060;43.770;4.008;2023-02-27T08:14:06;3.07;;;1.97;;
13973;SDS011;7060;43.770;4.008;2023-02-27T08:16:36;1.97;;;1.23;;
13973;SDS011;7060;43.770;4.008;2023-02-27T08:19:05;3.10;;;2.13;;
13973;SDS011;7060;43.770;4.008;2023-02-27T08:21:33;2.00;;;1.33;;
13973;SDS011;7060;43.770;4.008;2023-02-27T08:24:02;2.70;;;1.73;;
13973;SDS011;7060;43.770;4.008;2023-02-27T08:26:30;3.30;;;1.23;;
13973;SDS011;7060;43.770;4.008;2023-02-27T08:28:59;2.10;;;1.60;;
13973;SDS011;7060;43.770;4.008;2023-02-27T08:31:27;2.27;;;1.47;;
13973;SDS011;7060;43.770;4.008;2023-02-27T08:33:57;3.50;;;1.50;;
13973;SDS011;7060;43.770;4.008;2023-02-27T08:36:36;2.30;;;1.50;;
13973;SDS011;7060;43.770;4.008;2023-02-27T08:39:04;2.27;;;1.07;;
13973;SDS011;7060;43.770;4.008;2023-02-27T08:41:33;2.90;;;1.67;;
13973;SDS011;7060;43.770;4.008;2023-02-27T08:44:02;2.03;;;1.20;;
13973;SDS011;7060;43.770;4.008;2023-02-27T08:46:31;1.87;;;1.43;;
13973;SDS011;7060;43.770;4.008;2023-02-27T08:49:01;2.07;;;1.30;;
13973;SDS011;7060;43.770;4.008;2023-02-27T08:51:30;1.80;;;1.40;;
13973;SDS011;7060;43.770;4.008;2023-02-27T08:53:59;2.43;;;1.60;;
13973;SDS011;7060;43.770;4.008;2023-02-27T08:56:27;3.03;;;2.23;;
13973;SDS011;7060;43.770;4.008;2023-02-27T08:58:56;2.60;;;1.90;;
13973;SDS011;7060;43.770;4.008;2023-02-27T09:01:24;2.80;;;1.63;;
13973;SDS011;7060;43.770;4.008;2023-02-27T09:03:57;2.13;;;1.37;;
13973;SDS011;7060;43.770;4.008;2023-02-27T09:06:27;2.07;;;1.30;;
13973;SDS011;7060;43.770;4.008;2023-02-27T09:08:57;5.17;;;1.63;;
13973;SDS011;7060;43.770;4.008;2023-02-27T09:11:26;1.70;;;1.07;;
13973;SDS011;7060;43.770;4.008;2023-02-27T09:13:55;1.93;;;1.23;;
13973;SDS011;7060;43.770;4.008;2023-02-27T09:16:24;2.73;;;1.30;;
13973;SDS011;7060;43.770;4.008;2023-02-27T09:18:53;2.20;;;1.47;;
13973;SDS011;7060;43.770;4.008;2023-02-27T09:21:22;2.23;;;1.40;;
13973;SDS011;7060;43.770;4.008;2023-02-27T09:23:53;4.80;;;1.40;;
13973;SDS011;7060;43.770;4.008;2023-02-27T09:26:30;2.70;;;1.10;;
13973;SDS011;7060;43.770;4.008;2023-02-27T09:29:11;2.07;;;1.40;;
13973;SDS011;7060;43.770;4.008;2023-02-27T09:31:39;1.60;;;1.20;;
13973;SDS011;7060;43.770;4.008;2023-02-27T09:34:08;1.60;;;1.23;;
13973;SDS011;7060;43.770;4.008;2023-02-27T09:36:36;2.10;;;1.20;;
13973;SDS011;7060;43.770;4.008;2023-02-27T09:39:06;1.93;;;1.27;;
13973;SDS011;7060;43.770;4.008;2023-02-27T09:41:41;2.60;;;1.27;;
13973;SDS011;7060;43.770;4.008;2023-02-27T09:44:25;2.10;;;1.30;;
13973;SDS011;7060;43.770;4.008;2023-02-27T09:47:13;3.23;;;1.50;;
13973;SDS011;7060;43.770;4.008;2023-02-27T09:49:47;2.20;;;1.20;;
13973;SDS011;7060;43.770;4.008;2023-02-27T09:52:20;2.40;;;1.40;;
13973;SDS011;7060;43.770;4.008;2023-02-27T09:54:50;2.80;;;1.40;;
13973;SDS011;7060;43.770;4.008;2023-02-27T09:57:23;2.17;;;1.30;;
13973;SDS011;7060;43.770;4.008;2023-02-27T10:00:06;3.90;;;1.50;;
13973;SDS011;7060;43.770;4.008;2023-02-27T10:02:49;3.10;;;1.33;;
13973;SDS011;7060;43.770;4.008;2023-02-27T10:05:30;2.27;;;1.37;;
13973;SDS011;7060;43.770;4.008;2023-02-27T10:08:09;2.50;;;1.53;;
13973;SDS011;7060;43.770;4.008;2023-02-27T10:10:47;3.13;;;1.47;;
13973;SDS011;7060;43.770;4.008;2023-02-27T10:13:35;4.57;;;1.60;;
13973;SDS011;7060;43.770;4.008;2023-02-27T10:16:15;2.47;;;1.87;;
13973;SDS011;7060;43.770;4.008;2023-02-27T10:18:48;3.00;;;2.00;;
13973;SDS011;7060;43.770;4.008;2023-02-27T10:21:24;2.53;;;2.00;;
13973;SDS011;7060;43.770;4.008;2023-02-27T10:24:00;4.87;;;2.27;;
13973;SDS011;7060;43.770;4.008;2023-02-27T10:26:36;2.93;;;1.90;;
13973;SDS011;7060;43.770;4.008;2023-02-27T10:29:14;6.17;;;2.70;;
13973;SDS011;7060;43.770;4.008;2023-02-27T10:31:46;6.40;;;3.10;;
13973;SDS011;7060;43.770;4.008;2023-02-27T10:34:20;14.10;;;6.63;;
13973;SDS011;7060;43.770;4.008;2023-02-27T10:36:51;6.67;;;3.47;;
13973;SDS011;7060;43.770;4.008;2023-02-27T10:39:20;5.53;;;3.60;;
13973;SDS011;7060;43.770;4.008;2023-02-27T10:41:52;3.97;;;2.70;;
13973;SDS011;7060;43.770;4.008;2023-02-27T10:44:21;3.57;;;2.53;;
13973;SDS011;7060;43.770;4.008;2023-02-27T10:46:50;3.90;;;2.57;;
13973;SDS011;7060;43.770;4.008;2023-02-27T10:49:19;4.57;;;1.80;;
13973;SDS011;7060;43.770;4.008;2023-02-27T10:52:02;3.23;;;2.17;;
13973;SDS011;7060;43.770;4.008;2023-02-27T10:54:33;2.90;;;2.20;;
13973;SDS011;7060;43.770;4.008;2023-02-27T10:57:05;3.43;;;2.17;;
13973;SDS011;7060;43.770;4.008;2023-02-27T10:59:50;3.70;;;2.00;;
13973;SDS011;7060;43.770;4.008;2023-02-27T11:02:22;3.37;;;2.00;;
13973;SDS011;7060;43.770;4.008;2023-02-27T11:04:53;3.47;;;2.03;;
13973;SDS011;7060;43.770;4.008;2023-02-27T11:07:28;3.93;;;2.20;;
13973;SDS011;7060;43.770;4.008;2023-02-27T11:10:00;3.43;;;1.57;;
13973;SDS011;7060;43.770;4.008;2023-02-27T11:12:32;1.90;;;1.50;;
13973;SDS011;7060;43.770;4.008;2023-02-27T11:15:15;3.77;;;1.73;;
13973;SDS011;7060;43.770;4.008;2023-02-27T11:17:49;3.57;;;1.67;;
13973;SDS011;7060;43.770;4.008;2023-02-27T11:20:30;2.90;;;1.77;;
13973;SDS011;7060;43.770;4.008;2023-02-27T11:23:03;2.40;;;1.77;;
13973;SDS011;7060;43.770;4.008;2023-02-27T11:25:32;3.10;;;1.87;;
13973;SDS011;7060;43.770;4.008;2023-02-27T11:28:13;2.30;;;1.70;;
13973;SDS011;7060;43.770;4.008;2023-02-27T11:30:56;1.90;;;1.23;;
13973;SDS011;7060;43.770;4.008;2023-02-27T11:33:26;3.37;;;2.03;;
13973;SDS011;7060;43.770;4.008;2023-02-27T11:35:59;4.27;;;3.10;;
13973;SDS011;7060;43.770;4.008;2023-02-27T11:38:29;2.17;;;1.70;;
13973;SDS011;7060;43.770;4.008;2023-02-27T11:41:01;2.93;;;1.83;;
13973;SDS011;7060;43.770;4.008;2023-02-27T11:43:34;2.03;;;1.50;;
13973;SDS011;7060;43.770;4.008;2023-02-27T11:46:08;2.83;;;1.80;;
13973;SDS011;7060;43.770;4.008;2023-02-27T11:48:59;5.40;;;1.93;;
13973;SDS011;7060;43.770;4.008;2023-02-27T11:51:44;3.60;;;1.67;;
13973;SDS011;7060;43.770;4.008;2023-02-27T11:54:20;2.20;;;1.63;;
13973;SDS011;7060;43.770;4.008;2023-02-27T11:57:01;2.67;;;1.40;;
13973;SDS011;7060;43.770;4.008;2023-02-27T11:59:41;2.70;;;1.43;;
13973;SDS011;7060;43.770;4.008;2023-02-27T12:02:16;2.97;;;1.63;;
13973;SDS011;7060;43.770;4.008;2023-02-27T12:04:51;2.63;;;1.30;;
13973;SDS011;7060;43.770;4.008;2023-02-27T12:07:23;2.23;;;1.20;;
13973;SDS011;7060;43.770;4.008;2023-02-27T12:09:58;2.53;;;1.47;;
13973;SDS011;7060;43.770;4.008;2023-02-27T12:12:32;2.70;;;1.20;;
13973;SDS011;7060;43.770;4.008;2023-02-27T12:15:14;4.00;;;2.10;;
13973;SDS011;7060;43.770;4.008;2023-02-27T12:17:51;3.63;;;1.70;;
13973;SDS011;7060;43.770;4.008;2023-02-27T12:20:25;1.30;;;0.90;;
13973;SDS011;7060;43.770;4.008;2023-02-27T12:22:57;2.83;;;1.57;;
13973;SDS011;7060;43.770;4.008;2023-02-27T12:25:30;1.77;;;1.00;;
13973;SDS011;7060;43.770;4.008;2023-02-27T12:28:05;2.53;;;1.17;;
13973;SDS011;7060;43.770;4.008;2023-02-27T12:30:59;2.03;;;0.97;;
13973;SDS011;7060;43.770;4.008;2023-02-27T12:33:38;2.30;;;1.20;;
13973;SDS011;7060;43.770;4.008;2023-02-27T12:36:12;2.87;;;1.30;;
13973;SDS011;7060;43.770;4.008;2023-02-27T12:38:41;1.83;;;1.10;;
13973;SDS011;7060;43.770;4.008;2023-02-27T12:41:14;1.50;;;1.00;;
13973;SDS011;7060;43.770;4.008;2023-02-27T12:44:00;1.90;;;1.13;;
13973;SDS011;7060;43.770;4.008;2023-02-27T12:46:43;2.60;;;1.60;;
13973;SDS011;7060;43.770;4.008;2023-02-27T12:49:21;3.30;;;1.70;;
13973;SDS011;7060;43.770;4.008;2023-02-27T12:52:01;1.93;;;1.10;;
13973;SDS011;7060;43.770;4.008;2023-02-27T12:54:38;3.33;;;1.73;;
13973;SDS011;7060;43.770;4.008;2023-02-27T12:57:24;2.73;;;1.90;;
13973;SDS011;7060;43.770;4.008;2023-02-27T13:00:05;2.77;;;1.57;;
13973;SDS011;7060;43.770;4.008;2023-02-27T13:02:43;1.63;;;1.13;;
13973;SDS011;7060;43.770;4.008;2023-02-27T13:05:35;4.03;;;1.83;;
13973;SDS011;7060;43.770;4.008;2023-02-27T13:11:13;1.90;;;1.20;;
13973;SDS011;7060;43.770;4.008;2023-02-27T13:13:51;2.10;;;1.07;;
13973;SDS011;7060;43.770;4.008;2023-02-27T13:16:25;2.93;;;1.63;;
13973;SDS011;7060;43.770;4.008;2023-02-27T13:19:03;2.50;;;1.40;;
13973;SDS011;7060;43.770;4.008;2023-02-27T13:21:34;2.27;;;0.90;;
13973;SDS011;7060;43.770;4.008;2023-02-27T13:24:13;2.83;;;1.60;;
13973;SDS011;7060;43.770;4.008;2023-02-27T13:26:55;1.57;;;1.00;;
13973;SDS011;7060;43.770;4.008;2023-02-27T13:29:32;2.10;;;1.00;;
13973;SDS011;7060;43.770;4.008;2023-02-27T13:32:09;1.97;;;1.10;;
13973;SDS011;7060;43.770;4.008;2023-02-27T13:35:00;2.47;;;1.17;;
13973;SDS011;7060;43.770;4.008;2023-02-27T13:37:48;3.20;;;0.60;;
13973;SDS011;7060;43.770;4.008;2023-02-27T13:43:04;0.80;;;0.60;;
13973;SDS011;7060;43.770;4.008;2023-02-27T13:45:55;1.83;;;0.57;;
13973;SDS011;7060;43.770;4.008;2023-02-27T13:48:44;1.80;;;0.63;;
13973;SDS011;7060;43.770;4.008;2023-02-27T13:54:18;0.67;;;0.57;;
13973;SDS011;7060;43.770;4.008;2023-02-27T13:56:50;1.20;;;1.00;;
13973;SDS011;7060;43.770;4.008;2023-02-27T13:59:34;1.43;;;0.80;;
13973;SDS011;7060;43.770;4.008;2023-02-27T14:02:20;1.00;;;0.60;;
13973;SDS011;7060;43.770;4.008;2023-02-27T14:04:57;0.93;;;0.70;;
13973;SDS011;7060;43.770;4.008;2023-02-27T14:07:31;2.50;;;0.80;;
13973;SDS011;7060;43.770;4.008;2023-02-27T14:10:17;1.17;;;0.80;;
13973;SDS011;7060;43.770;4.008;2023-02-27T14:12:48;2.40;;;1.00;;
13973;SDS011;7060;43.770;4.008;2023-02-27T14:24:26;1.50;;;1.00;;
13973;SDS011;7060;43.770;4.008;2023-02-27T14:27:02;3.57;;;1.00;;
13973;SDS011;7060;43.770;4.008;2023-02-27T14:29:32;2.43;;;1.03;;
13973;SDS011;7060;43.770;4.008;2023-02-27T14:32:03;1.63;;;0.90;;
13973;SDS011;7060;43.770;4.008;2023-02-27T14:34:34;2.43;;;1.30;;
13973;SDS011;7060;43.770;4.008;2023-02-27T14:37:05;2.77;;;1.10;;
13973;SDS011;7060;43.770;4.008;2023-02-27T14:39:42;4.37;;;2.37;;
13973;SDS011;7060;43.770;4.008;2023-02-27T14:42:27;3.70;;;1.77;;
13973;SDS011;7060;43.770;4.008;2023-02-27T14:45:11;5.93;;;3.20;;
13973;SDS011;7060;43.770;4.008;2023-02-27T14:47:43;10.43;;;5.77;;
13973;SDS011;7060;43.770;4.008;2023-02-27T14:50:23;4.27;;;2.53;;
13973;SDS011;7060;43.770;4.008;2023-02-27T14:52:54;3.97;;;1.37;;
13973;SDS011;7060;43.770;4.008;2023-02-27T14:55:25;2.40;;;1.60;;
13973;SDS011;7060;43.770;4.008;2023-02-27T14:57:58;2.97;;;1.30;;
13973;SDS011;7060;43.770;4.008;2023-02-27T15:00:28;2.40;;;1.37;;
13973;SDS011;7060;43.770;4.008;2023-02-27T15:03:16;2.63;;;1.30;;
13973;SDS011;7060;43.770;4.008;2023-02-27T15:05:47;2.10;;;1.37;;
13973;SDS011;7060;43.770;4.008;2023-02-27T15:08:17;2.27;;;1.30;;
13973;SDS011;7060;43.770;4.008;2023-02-27T15:10:50;3.97;;;1.50;;
13973;SDS011;7060;43.770;4.008;2023-02-27T15:13:23;3.37;;;1.43;;
13973;SDS011;7060;43.770;4.008;2023-02-27T15:18:57;2.03;;;1.23;;
13973;SDS011;7060;43.770;4.008;2023-02-27T15:21:28;2.23;;;1.20;;
13973;SDS011;7060;43.770;4.008;2023-02-27T15:23:59;1.50;;;1.20;;
13973;SDS011;7060;43.770;4.008;2023-02-27T15:26:32;2.77;;;1.17;;
13973;SDS011;7060;43.770;4.008;2023-02-27T15:29:04;2.17;;;1.10;;
13973;SDS011;7060;43.770;4.008;2023-02-27T15:31:35;1.70;;;1.03;;
13973;SDS011;7060;43.770;4.008;2023-02-27T15:34:04;1.03;;;0.93;;
13973;SDS011;7060;43.770;4.008;2023-02-27T15:36:43;2.77;;;1.00;;
13973;SDS011;7060;43.770;4.008;2023-02-27T15:39:15;1.97;;;1.10;;
13973;SDS011;7060;43.770;4.008;2023-02-27T15:41:46;2.63;;;1.63;;
13973;SDS011;7060;43.770;4.008;2023-02-27T15:44:17;2.27;;;1.40;;
13973;SDS011;7060;43.770;4.008;2023-02-27T15:46:50;2.47;;;1.40;;
13973;SDS011;7060;43.770;4.008;2023-02-27T15:49:21;1.70;;;1.10;;
13973;SDS011;7060;43.770;4.008;2023-02-27T15:51:58;1.60;;;1.00;;
13973;SDS011;7060;43.770;4.008;2023-02-27T15:54:32;5.50;;;1.50;;
13973;SDS011;7060;43.770;4.008;2023-02-27T15:57:03;1.80;;;1.20;;
13973;SDS011;7060;43.770;4.008;2023-02-27T15:59:34;1.73;;;1.20;;
13973;SDS011;7060;43.770;4.008;2023-02-27T16:02:10;2.53;;;1.50;;
13973;SDS011;7060;43.770;4.008;2023-02-27T16:04:45;1.80;;;0.90;;
13973;SDS011;7060;43.770;4.008;2023-02-27T16:07:14;1.70;;;1.00;;
13973;SDS011;7060;43.770;4.008;2023-02-27T16:09:47;3.50;;;1.13;;
13973;SDS011;7060;43.770;4.008;2023-02-27T16:12:23;1.70;;;1.27;;
13973;SDS011;7060;43.770;4.008;2023-02-27T16:15:14;4.30;;;1.77;;